Terminal Aerodrome Forecast
Issued by NWS

Home | Current Version | Previous Version | Graphics & Text | Print | Product List | Glossary On
Versions: 1 2 3 4 5 6 7 8 9 10 11 12 13 14 15 16 17 18 19 20 21 22 23 24
000
FTUS41 KCLE 281700
TAFFDY
TAF
KFDY 281729Z 2818/0118 14004KT P6SM BKN120 OVC250
     FM010100 10005KT P6SM OVC050
     FM010400 12005KT 5SM -SN SCT015 OVC035
      TEMPO 0105/0109 2SM -SN OVC015
     FM010900 15003KT 3/4SM -SN OVC008
     FM011600 VRB04KT 4SM -SN SCT008 OVC015=

USA.gov is the U.S. government's official web portal to all federal, state and local government web resources and services.